Aérodrome :
LOGIN :

S'inscrire | Disclaimer

   EN    FR    IT 

 










Légende :    VFR   VFR Marginal   IFR   IFR Intensif   IFR Très Intensif
Visi : 
Plafond : 
>= 8 km
>= 3000ft
5 à 8 km
1000 à 3000 ft
1500m à 5 km
500 à 1000 ft
800 à 1500m
200 à 500 ft
< 800m
< 200 ft
Symboles :   Orages  Brouillard  Fortes neiges  Fortes précipitations  Vent > 20 kt
SIGMETs :   Divers  Orages  Givrage  Turbulence  Onde Orograph.  Cendres Volcan.






- Altitude de l'aérodrome : 1363 ft


ETIC - Grafenwohr Army Air Field

DERNIER METAR :
  • 240456Z AUTO 00000KT 0400 R14/0400V0550 FG VV000 06/06 A2983 RMK AO2 SLP107 T00590059 $

METARs EXPIRÉS :
  • 240356Z AUTO 00000KT 0400 R14/0500V0600 FG VV000 06/06 A2984 RMK AO2 SLP108 T00560056 $
  • 240341Z AUTO 00000KT 0400 R14/0350V0550 FG VV000 06/06 A2984 RMK AO2 SLP108 $
  • 240256Z AUTO 00000KT 0400 R14/0400V0600 FG BKN000 06/06 A2985 RMK AO2 SLP110 T00590059 57011 $

TAF AMD TAF ETIC
Valide du 24 à 04h jusqu'au 25 à 04h UTC


2404/2504 09006KT 0400 FG FEW008 QNH2979INS
BECMG 2407/2408 VRB06KT 3200 BR OVC012 QNH2976INS
BECMG 2411/2412 VRB06KT 6000 BR SCT010 QNH2979INS
BECMG 2416/2417 VRB06KT 9999 NSW BKN010 QNH2982INS TX15/2412Z TN05/2406Z



MET'MAP, la Météo Aéronautique d'un coup d'oeil ! - Copyright ORBIFLY Décembre 2007 - Disclaimer

ORBIFLY MET'MAP TEAM :

Programmation & Développement : Alexandra Zaïnal
Conception & Développement : Baudouin d'Aumeries
Co-Programmation & Développement : Marc-Olivier Méhu
Soutien technique & logistique : Manuel Goepfert

Contact : metmap@orbifly.com




SOURCES & CREDITS :

   NOAA